sensor_id;sensor_type;location;lat;lon;timestamp;pressure;altitude;pressure_sealevel;temperature;humidity
77077;BME280;66003;52.286;104.306;2023-06-04T00:00:47;96553.38;;;22.73;50.09
77077;BME280;66003;52.286;104.306;2023-06-04T00:03:13;96571.06;;;22.79;50.93
77077;BME280;66003;52.286;104.306;2023-06-04T00:05:39;96558.31;;;22.83;50.42
77077;BME280;66003;52.286;104.306;2023-06-04T00:08:05;96572.84;;;23.73;49.81
77077;BME280;66003;52.286;104.306;2023-06-04T00:10:31;96553.56;;;23.47;48.26
77077;BME280;66003;52.286;104.306;2023-06-04T00:13:00;96566.59;;;23.72;47.20
77077;BME280;66003;52.286;104.306;2023-06-04T00:15:26;96548.44;;;23.80;46.55
77077;BME280;66003;52.286;104.306;2023-06-04T00:17:52;96564.56;;;24.69;46.40
77077;BME280;66003;52.286;104.306;2023-06-04T00:20:18;96572.69;;;26.24;43.08
77077;BME280;66003;52.286;104.306;2023-06-04T00:22:45;96559.81;;;27.64;39.12
77077;BME280;66003;52.286;104.306;2023-06-04T00:25:11;96586.50;;;29.78;36.12
77077;BME280;66003;52.286;104.306;2023-06-04T00:27:37;96561.03;;;32.25;32.47
77077;BME280;66003;52.286;104.306;2023-06-04T00:30:04;96568.63;;;34.87;28.22
77077;BME280;66003;52.286;104.306;2023-06-04T00:32:35;96545.38;;;36.96;26.02
77077;BME280;66003;52.286;104.306;2023-06-04T00:35:01;96564.72;;;38.90;23.12
77077;BME280;66003;52.286;104.306;2023-06-04T00:37:30;96547.88;;;40.58;20.91
77077;BME280;66003;52.286;104.306;2023-06-04T00:39:58;96571.75;;;41.53;20.08
77077;BME280;66003;52.286;104.306;2023-06-04T00:42:24;96550.06;;;41.77;19.96
77077;BME280;66003;52.286;104.306;2023-06-04T00:44:51;96544.72;;;41.79;19.75
77077;BME280;66003;52.286;104.306;2023-06-04T00:47:18;96543.56;;;40.90;19.71
77077;BME280;66003;52.286;104.306;2023-06-04T00:49:46;96530.88;;;39.83;20.84
77077;BME280;66003;52.286;104.306;2023-06-04T00:52:14;96539.59;;;39.76;20.54
77077;BME280;66003;52.286;104.306;2023-06-04T00:54:41;96546.72;;;40.14;20.83
77077;BME280;66003;52.286;104.306;2023-06-04T00:57:08;96542.78;;;40.90;20.64
77077;BME280;66003;52.286;104.306;2023-06-04T00:59:38;96535.72;;;41.51;19.10
77077;BME280;66003;52.286;104.306;2023-06-04T01:02:26;96523.28;;;42.64;19.21
77077;BME280;66003;52.286;104.306;2023-06-04T01:07:31;96526.97;;;41.58;19.37
77077;BME280;66003;52.286;104.306;2023-06-04T01:09:57;96538.22;;;41.01;19.30
77077;BME280;66003;52.286;104.306;2023-06-04T01:12:24;96533.00;;;40.43;20.63
77077;BME280;66003;52.286;104.306;2023-06-04T01:14:50;96544.19;;;40.25;21.15
77077;BME280;66003;52.286;104.306;2023-06-04T01:17:25;96554.53;;;40.79;19.88
77077;BME280;66003;52.286;104.306;2023-06-04T01:25:32;96572.09;;;38.44;21.14
77077;BME280;66003;52.286;104.306;2023-06-04T01:27:59;96572.47;;;37.55;23.03
77077;BME280;66003;52.286;104.306;2023-06-04T01:30:30;96545.72;;;36.73;23.14
77077;BME280;66003;52.286;104.306;2023-06-04T01:33:00;96561.13;;;36.23;24.43
77077;BME280;66003;52.286;104.306;2023-06-04T01:35:28;96557.75;;;36.57;24.87
77077;BME280;66003;52.286;104.306;2023-06-04T01:37:54;96549.94;;;37.28;24.05
77077;BME280;66003;52.286;104.306;2023-06-04T01:40:23;96539.31;;;37.70;23.71
77077;BME280;66003;52.286;104.306;2023-06-04T01:42:50;96546.94;;;38.66;21.58
77077;BME280;66003;52.286;104.306;2023-06-04T01:45:17;96556.31;;;39.30;21.78
77077;BME280;66003;52.286;104.306;2023-06-04T01:47:43;96557.34;;;40.00;21.32
77077;BME280;66003;52.286;104.306;2023-06-04T01:50:10;96554.81;;;40.30;21.19
77077;BME280;66003;52.286;104.306;2023-06-04T01:52:37;96546.44;;;40.12;19.84
77077;BME280;66003;52.286;104.306;2023-06-04T01:55:04;96545.78;;;40.17;20.46
77077;BME280;66003;52.286;104.306;2023-06-04T01:57:31;96545.34;;;39.82;20.83
77077;BME280;66003;52.286;104.306;2023-06-04T01:59:57;96545.31;;;39.54;21.84
77077;BME280;66003;52.286;104.306;2023-06-04T02:02:24;96558.03;;;39.28;21.39
77077;BME280;66003;52.286;104.306;2023-06-04T02:04:50;96567.75;;;38.74;22.53
77077;BME280;66003;52.286;104.306;2023-06-04T02:07:18;96557.22;;;38.04;23.09
77077;BME280;66003;52.286;104.306;2023-06-04T02:09:48;96547.72;;;37.57;23.27
77077;BME280;66003;52.286;104.306;2023-06-04T02:12:15;96541.34;;;36.97;23.50
77077;BME280;66003;52.286;104.306;2023-06-04T02:14:42;96548.19;;;36.16;24.52
77077;BME280;66003;52.286;104.306;2023-06-04T02:17:08;96549.50;;;35.22;25.65
77077;BME280;66003;52.286;104.306;2023-06-04T02:19:47;96537.22;;;34.54;26.37
77077;BME280;66003;52.286;104.306;2023-06-04T02:22:17;96558.25;;;33.76;27.34
77077;BME280;66003;52.286;104.306;2023-06-04T02:24:44;96533.00;;;33.04;27.95
77077;BME280;66003;52.286;104.306;2023-06-04T02:27:11;96531.81;;;32.51;28.99
77077;BME280;66003;52.286;104.306;2023-06-04T02:29:41;96486.44;;;32.18;29.20
77077;BME280;66003;52.286;104.306;2023-06-04T02:32:08;96501.97;;;32.09;29.42
77077;BME280;66003;52.286;104.306;2023-06-04T02:34:35;96536.13;;;32.25;29.58
77077;BME280;66003;52.286;104.306;2023-06-04T02:37:02;96512.03;;;31.92;28.80
77077;BME280;66003;52.286;104.306;2023-06-04T02:39:29;96519.13;;;31.59;29.24
77077;BME280;66003;52.286;104.306;2023-06-04T02:41:55;96544.41;;;31.54;29.72
77077;BME280;66003;52.286;104.306;2023-06-04T02:44:21;96520.41;;;31.10;30.52
77077;BME280;66003;52.286;104.306;2023-06-04T02:46:48;96535.25;;;30.75;30.86
77077;BME280;66003;52.286;104.306;2023-06-04T02:49:14;96540.19;;;30.42;31.21
77077;BME280;66003;52.286;104.306;2023-06-04T02:51:41;96532.91;;;30.00;31.67
77077;BME280;66003;52.286;104.306;2023-06-04T02:54:07;96534.59;;;29.69;32.24
77077;BME280;66003;52.286;104.306;2023-06-04T02:56:34;96549.19;;;29.59;32.68
77077;BME280;66003;52.286;104.306;2023-06-04T02:59:01;96521.28;;;29.22;32.69
77077;BME280;66003;52.286;104.306;2023-06-04T03:01:27;96546.09;;;28.86;33.54
77077;BME280;66003;52.286;104.306;2023-06-04T03:03:54;96526.34;;;28.20;33.67
77077;BME280;66003;52.286;104.306;2023-06-04T03:06:21;96543.06;;;27.83;34.44
77077;BME280;66003;52.286;104.306;2023-06-04T03:08:49;96525.53;;;27.40;34.74
77077;BME280;66003;52.286;104.306;2023-06-04T03:11:17;96529.69;;;27.16;35.91
77077;BME280;66003;52.286;104.306;2023-06-04T03:13:45;96523.75;;;27.07;36.37
77077;BME280;66003;52.286;104.306;2023-06-04T03:16:12;96491.06;;;26.88;36.36
77077;BME280;66003;52.286;104.306;2023-06-04T03:18:40;96549.75;;;27.27;36.42
77077;BME280;66003;52.286;104.306;2023-06-04T03:21:07;96542.09;;;27.54;36.38
77077;BME280;66003;52.286;104.306;2023-06-04T03:23:34;96543.13;;;28.12;35.02
77077;BME280;66003;52.286;104.306;2023-06-04T03:26:04;96553.16;;;28.87;34.13
77077;BME280;66003;52.286;104.306;2023-06-04T03:28:32;96549.19;;;29.34;33.41
77077;BME280;66003;52.286;104.306;2023-06-04T03:30:58;96548.00;;;29.53;32.85
77077;BME280;66003;52.286;104.306;2023-06-04T03:33:25;96515.25;;;29.76;33.22
77077;BME280;66003;52.286;104.306;2023-06-04T03:35:52;96537.63;;;30.03;32.40
77077;BME280;66003;52.286;104.306;2023-06-04T03:38:19;96522.22;;;30.09;32.52
77077;BME280;66003;52.286;104.306;2023-06-04T03:40:46;96494.63;;;30.20;31.53
77077;BME280;66003;52.286;104.306;2023-06-04T03:43:12;96510.59;;;30.54;32.39
77077;BME280;66003;52.286;104.306;2023-06-04T03:45:38;96514.09;;;31.06;31.04
77077;BME280;66003;52.286;104.306;2023-06-04T03:48:04;96513.47;;;31.32;30.91
77077;BME280;66003;52.286;104.306;2023-06-04T03:50:31;96509.22;;;31.62;30.49
77077;BME280;66003;52.286;104.306;2023-06-04T03:52:57;96509.91;;;31.73;29.94
77077;BME280;66003;52.286;104.306;2023-06-04T03:55:23;96511.13;;;32.02;29.79
77077;BME280;66003;52.286;104.306;2023-06-04T03:57:50;96516.19;;;32.07;30.00
77077;BME280;66003;52.286;104.306;2023-06-04T04:00:16;96484.88;;;31.49;29.88
77077;BME280;66003;52.286;104.306;2023-06-04T04:02:42;96513.50;;;31.29;30.81
77077;BME280;66003;52.286;104.306;2023-06-04T04:05:09;96506.66;;;30.99;31.45
77077;BME280;66003;52.286;104.306;2023-06-04T04:07:36;96483.38;;;30.48;32.12
77077;BME280;66003;52.286;104.306;2023-06-04T04:10:03;96495.59;;;30.47;32.54
77077;BME280;66003;52.286;104.306;2023-06-04T04:12:31;96471.09;;;30.64;31.07
77077;BME280;66003;52.286;104.306;2023-06-04T04:14:57;96500.16;;;31.23;31.27
77077;BME280;66003;52.286;104.306;2023-06-04T04:17:25;96503.47;;;31.45;30.38
77077;BME280;66003;52.286;104.306;2023-06-04T04:19:51;96485.06;;;31.32;29.17
77077;BME280;66003;52.286;104.306;2023-06-04T04:22:18;96478.19;;;31.13;30.32
77077;BME280;66003;52.286;104.306;2023-06-04T04:24:44;96467.94;;;31.06;29.50
77077;BME280;66003;52.286;104.306;2023-06-04T04:27:10;96487.72;;;31.01;29.99
77077;BME280;66003;52.286;104.306;2023-06-04T04:29:41;96483.91;;;30.88;29.85
77077;BME280;66003;52.286;104.306;2023-06-04T04:32:09;96458.34;;;30.22;30.80
77077;BME280;66003;52.286;104.306;2023-06-04T04:34:38;96476.06;;;30.28;30.65
77077;BME280;66003;52.286;104.306;2023-06-04T04:37:17;96480.59;;;30.52;30.43
77077;BME280;66003;52.286;104.306;2023-06-04T04:39:47;96492.06;;;30.47;30.72
77077;BME280;66003;52.286;104.306;2023-06-04T04:42:13;96472.91;;;30.26;31.09
77077;BME280;66003;52.286;104.306;2023-06-04T04:44:39;96481.22;;;30.19;31.69
77077;BME280;66003;52.286;104.306;2023-06-04T04:47:05;96472.59;;;30.09;31.80
77077;BME280;66003;52.286;104.306;2023-06-04T04:49:32;96482.50;;;30.00;31.24
77077;BME280;66003;52.286;104.306;2023-06-04T04:51:58;96459.31;;;29.97;30.31
77077;BME280;66003;52.286;104.306;2023-06-04T04:54:24;96481.09;;;30.36;29.88
77077;BME280;66003;52.286;104.306;2023-06-04T04:56:50;96466.41;;;30.57;29.62
77077;BME280;66003;52.286;104.306;2023-06-04T04:59:16;96461.97;;;30.70;29.44
77077;BME280;66003;52.286;104.306;2023-06-04T05:01:43;96476.59;;;30.67;29.63
77077;BME280;66003;52.286;104.306;2023-06-04T05:04:09;96457.31;;;30.60;29.87
77077;BME280;66003;52.286;104.306;2023-06-04T05:06:37;96470.41;;;30.45;30.16
77077;BME280;66003;52.286;104.306;2023-06-04T05:09:03;96470.22;;;30.15;30.26
77077;BME280;66003;52.286;104.306;2023-06-04T05:11:29;96460.53;;;29.86;30.79
77077;BME280;66003;52.286;104.306;2023-06-04T05:13:55;96462.47;;;29.89;30.74
77077;BME280;66003;52.286;104.306;2023-06-04T05:16:22;96451.41;;;29.92;30.13
77077;BME280;66003;52.286;104.306;2023-06-04T05:18:48;96456.06;;;30.09;30.74
77077;BME280;66003;52.286;104.306;2023-06-04T05:21:17;96449.41;;;30.03;30.85
77077;BME280;66003;52.286;104.306;2023-06-04T05:23:44;96438.81;;;29.95;31.18
77077;BME280;66003;52.286;104.306;2023-06-04T05:26:14;96454.78;;;30.28;30.92
77077;BME280;66003;52.286;104.306;2023-06-04T05:28:40;96440.13;;;30.35;30.45
77077;BME280;66003;52.286;104.306;2023-06-04T05:31:09;96431.97;;;30.72;30.06
77077;BME280;66003;52.286;104.306;2023-06-04T05:33:38;96428.22;;;30.56;30.15
77077;BME280;66003;52.286;104.306;2023-06-04T05:36:05;96429.25;;;30.69;30.50
77077;BME280;66003;52.286;104.306;2023-06-04T05:38:31;96422.94;;;30.68;29.80
77077;BME280;66003;52.286;104.306;2023-06-04T05:40:57;96434.50;;;30.97;29.39
77077;BME280;66003;52.286;104.306;2023-06-04T05:43:23;96438.53;;;30.89;29.60
77077;BME280;66003;52.286;104.306;2023-06-04T05:45:50;96431.50;;;30.81;29.89
77077;BME280;66003;52.286;104.306;2023-06-04T05:48:17;96424.66;;;30.55;30.19
77077;BME280;66003;52.286;104.306;2023-06-04T05:50:43;96403.19;;;30.22;30.31
77077;BME280;66003;52.286;104.306;2023-06-04T05:53:09;96408.31;;;30.23;30.50
77077;BME280;66003;52.286;104.306;2023-06-04T05:55:36;96415.28;;;30.38;30.68
77077;BME280;66003;52.286;104.306;2023-06-04T05:58:02;96406.53;;;30.50;30.22
77077;BME280;66003;52.286;104.306;2023-06-04T06:00:28;96403.00;;;30.54;30.29
77077;BME280;66003;52.286;104.306;2023-06-04T06:02:55;96403.88;;;30.40;29.72
77077;BME280;66003;52.286;104.306;2023-06-04T06:05:21;96383.88;;;30.29;30.29
77077;BME280;66003;52.286;104.306;2023-06-04T06:07:47;96394.00;;;30.42;29.42
77077;BME280;66003;52.286;104.306;2023-06-04T06:10:13;96405.44;;;30.41;29.87
77077;BME280;66003;52.286;104.306;2023-06-04T06:12:41;96407.81;;;30.35;30.10
77077;BME280;66003;52.286;104.306;2023-06-04T06:15:08;96399.50;;;30.42;29.79
77077;BME280;66003;52.286;104.306;2023-06-04T06:17:34;96379.94;;;30.26;29.73
77077;BME280;66003;52.286;104.306;2023-06-04T06:20:01;96375.28;;;30.20;29.75
77077;BME280;66003;52.286;104.306;2023-06-04T06:22:32;96380.59;;;30.44;29.70
77077;BME280;66003;52.286;104.306;2023-06-04T06:25:00;96386.78;;;30.59;30.53
77077;BME280;66003;52.286;104.306;2023-06-04T06:27:26;96391.84;;;30.64;29.56
77077;BME280;66003;52.286;104.306;2023-06-04T06:29:52;96393.53;;;30.47;29.62
77077;BME280;66003;52.286;104.306;2023-06-04T06:32:19;96387.78;;;30.31;29.69
77077;BME280;66003;52.286;104.306;2023-06-04T06:34:45;96326.69;;;29.81;29.63
77077;BME280;66003;52.286;104.306;2023-06-04T06:37:11;96380.34;;;30.21;30.51
77077;BME280;66003;52.286;104.306;2023-06-04T06:39:37;96367.69;;;30.31;30.22
77077;BME280;66003;52.286;104.306;2023-06-04T06:42:03;96378.09;;;30.61;29.74
77077;BME280;66003;52.286;104.306;2023-06-04T06:44:30;96360.19;;;30.79;29.66
77077;BME280;66003;52.286;104.306;2023-06-04T06:46:56;96366.13;;;31.15;29.66
77077;BME280;66003;52.286;104.306;2023-06-04T06:49:22;96364.69;;;31.34;29.36
77077;BME280;66003;52.286;104.306;2023-06-04T06:51:48;96356.41;;;31.34;28.60
77077;BME280;66003;52.286;104.306;2023-06-04T06:54:15;96364.13;;;31.16;29.51
77077;BME280;66003;52.286;104.306;2023-06-04T06:56:50;96357.84;;;31.15;30.28
77077;BME280;66003;52.286;104.306;2023-06-04T06:59:16;96351.56;;;30.74;30.27
77077;BME280;66003;52.286;104.306;2023-06-04T07:01:43;96338.03;;;30.83;30.39
77077;BME280;66003;52.286;104.306;2023-06-04T07:04:09;96353.53;;;31.11;30.51
77077;BME280;66003;52.286;104.306;2023-06-04T07:06:35;96355.16;;;31.05;29.75
77077;BME280;66003;52.286;104.306;2023-06-04T07:09:04;96334.84;;;30.88;29.60
77077;BME280;66003;52.286;104.306;2023-06-04T07:11:34;96344.34;;;30.83;30.31
77077;BME280;66003;52.286;104.306;2023-06-04T07:14:00;96343.00;;;30.99;30.07
77077;BME280;66003;52.286;104.306;2023-06-04T07:16:28;96322.88;;;31.02;29.68
77077;BME280;66003;52.286;104.306;2023-06-04T07:18:55;96324.75;;;31.12;29.59
77077;BME280;66003;52.286;104.306;2023-06-04T07:21:21;96330.16;;;30.81;29.88
77077;BME280;66003;52.286;104.306;2023-06-04T07:23:50;96310.78;;;30.55;29.79
77077;BME280;66003;52.286;104.306;2023-06-04T07:26:17;96313.84;;;30.60;30.22
77077;BME280;66003;52.286;104.306;2023-06-04T07:28:44;96290.03;;;30.36;30.45
77077;BME280;66003;52.286;104.306;2023-06-04T07:31:10;96327.06;;;30.35;30.39
77077;BME280;66003;52.286;104.306;2023-06-04T07:33:37;96306.06;;;30.07;31.12
77077;BME280;66003;52.286;104.306;2023-06-04T07:36:11;96314.25;;;30.17;30.56
77077;BME280;66003;52.286;104.306;2023-06-04T07:38:38;96282.59;;;29.81;31.32
77077;BME280;66003;52.286;104.306;2023-06-04T07:41:04;96305.16;;;29.65;31.48
77077;BME280;66003;52.286;104.306;2023-06-04T07:43:30;96290.28;;;29.52;32.09
77077;BME280;66003;52.286;104.306;2023-06-04T07:45:57;96294.53;;;29.64;32.03
77077;BME280;66003;52.286;104.306;2023-06-04T07:48:23;96297.78;;;29.48;31.93
77077;BME280;66003;52.286;104.306;2023-06-04T07:50:59;96275.03;;;29.33;32.10
77077;BME280;66003;52.286;104.306;2023-06-04T07:53:26;96268.78;;;29.26;32.54
77077;BME280;66003;52.286;104.306;2023-06-04T07:55:53;96284.06;;;29.34;32.07
77077;BME280;66003;52.286;104.306;2023-06-04T07:58:20;96268.00;;;29.25;31.73
77077;BME280;66003;52.286;104.306;2023-06-04T08:00:47;96247.19;;;29.17;31.72
77077;BME280;66003;52.286;104.306;2023-06-04T08:03:13;96277.00;;;29.33;31.57
77077;BME280;66003;52.286;104.306;2023-06-04T08:05:41;96275.09;;;29.19;31.87
77077;BME280;66003;52.286;104.306;2023-06-04T08:08:08;96278.28;;;29.14;31.66
77077;BME280;66003;52.286;104.306;2023-06-04T08:10:34;96257.13;;;29.00;32.07
77077;BME280;66003;52.286;104.306;2023-06-04T08:13:01;96262.59;;;29.04;32.19
77077;BME280;66003;52.286;104.306;2023-06-04T08:15:27;96256.69;;;29.13;31.81
77077;BME280;66003;52.286;104.306;2023-06-04T08:18:13;96260.16;;;29.20;32.02
77077;BME280;66003;52.286;104.306;2023-06-04T08:20:56;96250.63;;;29.35;31.95
77077;BME280;66003;52.286;104.306;2023-06-04T08:23:37;96235.69;;;29.33;31.93
77077;BME280;66003;52.286;104.306;2023-06-04T08:26:23;96238.84;;;29.35;31.77
77077;BME280;66003;52.286;104.306;2023-06-04T08:29:03;96249.03;;;29.41;32.26
77077;BME280;66003;52.286;104.306;2023-06-04T08:31:52;96236.97;;;29.21;32.21
77077;BME280;66003;52.286;104.306;2023-06-04T08:34:25;96225.53;;;29.23;32.12
77077;BME280;66003;52.286;104.306;2023-06-04T08:36:51;96222.00;;;29.26;31.77
77077;BME280;66003;52.286;104.306;2023-06-04T08:39:17;96217.19;;;29.37;31.50
77077;BME280;66003;52.286;104.306;2023-06-04T08:41:48;96233.97;;;29.60;31.63
77077;BME280;66003;52.286;104.306;2023-06-04T08:44:16;96221.00;;;29.61;31.28
77077;BME280;66003;52.286;104.306;2023-06-04T08:46:44;96211.56;;;29.55;31.44
77077;BME280;66003;52.286;104.306;2023-06-04T08:49:12;96233.88;;;29.71;31.09
77077;BME280;66003;52.286;104.306;2023-06-04T08:51:39;96225.22;;;29.72;29.97
77077;BME280;66003;52.286;104.306;2023-06-04T08:54:08;96232.81;;;30.06;30.22
77077;BME280;66003;52.286;104.306;2023-06-04T08:56:35;96199.84;;;29.92;30.01
77077;BME280;66003;52.286;104.306;2023-06-04T08:59:04;96211.88;;;30.12;29.16
77077;BME280;66003;52.286;104.306;2023-06-04T09:01:33;96220.56;;;30.10;29.17
77077;BME280;66003;52.286;104.306;2023-06-04T09:04:03;96223.94;;;30.25;29.49
77077;BME280;66003;52.286;104.306;2023-06-04T09:06:32;96215.09;;;30.44;29.83
77077;BME280;66003;52.286;104.306;2023-06-04T09:09:02;96226.19;;;30.75;29.34
77077;BME280;66003;52.286;104.306;2023-06-04T09:11:51;96220.97;;;31.14;29.62
77077;BME280;66003;52.286;104.306;2023-06-04T09:14:18;96208.03;;;31.04;29.13
77077;BME280;66003;52.286;104.306;2023-06-04T09:16:46;96208.63;;;31.22;29.11
77077;BME280;66003;52.286;104.306;2023-06-04T09:19:13;96209.41;;;31.23;28.50
77077;BME280;66003;52.286;104.306;2023-06-04T09:21:56;96229.75;;;31.59;29.21
77077;BME280;66003;52.286;104.306;2023-06-04T09:24:25;96200.97;;;31.57;28.13
77077;BME280;66003;52.286;104.306;2023-06-04T09:26:51;96194.25;;;31.58;28.57
77077;BME280;66003;52.286;104.306;2023-06-04T09:29:18;96202.63;;;31.78;28.12
77077;BME280;66003;52.286;104.306;2023-06-04T09:31:45;96219.53;;;31.83;27.78
77077;BME280;66003;52.286;104.306;2023-06-04T09:34:13;96204.69;;;31.74;27.89
77077;BME280;66003;52.286;104.306;2023-06-04T09:36:40;96210.50;;;31.79;27.59
77077;BME280;66003;52.286;104.306;2023-06-04T09:39:16;96230.59;;;32.07;27.85
77077;BME280;66003;52.286;104.306;2023-06-04T09:41:43;96216.44;;;31.78;27.90
77077;BME280;66003;52.286;104.306;2023-06-04T09:44:09;96205.34;;;31.54;28.10
77077;BME280;66003;52.286;104.306;2023-06-04T09:46:37;96213.75;;;31.47;27.73
77077;BME280;66003;52.286;104.306;2023-06-04T09:49:05;96153.56;;;31.08;28.13
77077;BME280;66003;52.286;104.306;2023-06-04T09:51:32;96202.44;;;31.15;26.56
77077;BME280;66003;52.286;104.306;2023-06-04T09:54:00;96228.72;;;31.23;26.26
77077;BME280;66003;52.286;104.306;2023-06-04T09:56:27;96208.97;;;30.94;26.60
77077;BME280;66003;52.286;104.306;2023-06-04T09:58:58;96219.81;;;31.12;26.67
77077;BME280;66003;52.286;104.306;2023-06-04T10:01:29;96210.47;;;31.02;26.49
77077;BME280;66003;52.286;104.306;2023-06-04T10:04:00;96227.28;;;31.15;26.45
77077;BME280;66003;52.286;104.306;2023-06-04T10:06:33;96232.00;;;31.14;26.50
77077;BME280;66003;52.286;104.306;2023-06-04T10:09:06;96223.94;;;30.97;26.47
77077;BME280;66003;52.286;104.306;2023-06-04T10:11:49;96224.94;;;31.13;26.86
77077;BME280;66003;52.286;104.306;2023-06-04T10:15:05;96232.28;;;31.23;27.16
77077;BME280;66003;52.286;104.306;2023-06-04T10:17:33;96233.47;;;30.58;27.07
77077;BME280;66003;52.286;104.306;2023-06-04T10:20:01;96220.44;;;30.21;27.76
77077;BME280;66003;52.286;104.306;2023-06-04T10:22:30;96215.19;;;29.96;27.86
77077;BME280;66003;52.286;104.306;2023-06-04T10:24:58;96236.94;;;29.84;27.75
77077;BME280;66003;52.286;104.306;2023-06-04T10:27:24;96233.59;;;29.58;28.00
77077;BME280;66003;52.286;104.306;2023-06-04T10:29:51;96247.03;;;29.49;28.20
77077;BME280;66003;52.286;104.306;2023-06-04T10:32:18;96232.22;;;29.25;29.02
77077;BME280;66003;52.286;104.306;2023-06-04T10:34:46;96258.94;;;29.28;29.48
77077;BME280;66003;52.286;104.306;2023-06-04T10:37:20;96251.19;;;29.05;29.07
77077;BME280;66003;52.286;104.306;2023-06-04T10:39:57;96262.59;;;29.07;28.79
77077;BME280;66003;52.286;104.306;2023-06-04T10:42:24;96261.50;;;28.91;29.50
77077;BME280;66003;52.286;104.306;2023-06-04T10:44:52;96265.06;;;28.77;29.00
77077;BME280;66003;52.286;104.306;2023-06-04T10:47:26;96272.56;;;28.66;28.97
77077;BME280;66003;52.286;104.306;2023-06-04T10:50:10;96285.91;;;28.78;28.71
77077;BME280;66003;52.286;104.306;2023-06-04T10:52:37;96269.50;;;28.39;28.84
77077;BME280;66003;52.286;104.306;2023-06-04T10:55:07;96290.72;;;28.24;29.88
77077;BME280;66003;52.286;104.306;2023-06-04T10:57:34;96280.50;;;27.86;30.25
77077;BME280;66003;52.286;104.306;2023-06-04T11:00:02;96287.19;;;27.81;29.97
77077;BME280;66003;52.286;104.306;2023-06-04T11:02:32;96303.28;;;27.83;30.51
77077;BME280;66003;52.286;104.306;2023-06-04T11:07:29;96310.72;;;27.89;30.76
77077;BME280;66003;52.286;104.306;2023-06-04T11:09:55;96298.56;;;27.76;30.70
77077;BME280;66003;52.286;104.306;2023-06-04T11:12:21;96315.84;;;27.84;31.20
77077;BME280;66003;52.286;104.306;2023-06-04T11:14:55;96311.50;;;27.90;31.14
77077;BME280;66003;52.286;104.306;2023-06-04T11:17:21;96318.19;;;27.99;31.31
77077;BME280;66003;52.286;104.306;2023-06-04T11:19:47;96317.78;;;28.01;31.13
77077;BME280;66003;52.286;104.306;2023-06-04T11:22:14;96288.75;;;27.86;31.47
77077;BME280;66003;52.286;104.306;2023-06-04T11:24:41;96329.16;;;28.10;31.58
77077;BME280;66003;52.286;104.306;2023-06-04T11:27:07;96323.66;;;28.10;30.96
77077;BME280;66003;52.286;104.306;2023-06-04T11:29:33;96327.59;;;27.77;31.48
77077;BME280;66003;52.286;104.306;2023-06-04T11:32:00;96345.22;;;27.65;31.67
77077;BME280;66003;52.286;104.306;2023-06-04T11:34:28;96337.66;;;27.30;33.10
77077;BME280;66003;52.286;104.306;2023-06-04T11:36:55;96373.19;;;26.37;35.84
77077;BME280;66003;52.286;104.306;2023-06-04T11:39:22;96367.47;;;25.34;39.65
77077;BME280;66003;52.286;104.306;2023-06-04T11:41:50;96378.66;;;24.66;42.08
77077;BME280;66003;52.286;104.306;2023-06-04T11:44:20;96361.19;;;23.75;43.42
77077;BME280;66003;52.286;104.306;2023-06-04T11:46:46;96374.28;;;23.66;43.28
77077;BME280;66003;52.286;104.306;2023-06-04T11:49:18;96362.25;;;23.29;42.70
77077;BME280;66003;52.286;104.306;2023-06-04T11:51:49;96377.81;;;23.48;42.38
77077;BME280;66003;52.286;104.306;2023-06-04T11:54:17;96374.25;;;23.24;42.44
77077;BME280;66003;52.286;104.306;2023-06-04T11:56:44;96346.06;;;22.97;41.81
77077;BME280;66003;52.286;104.306;2023-06-04T11:59:14;96363.91;;;23.14;41.44
77077;BME280;66003;52.286;104.306;2023-06-04T12:01:42;96357.31;;;23.34;40.75
77077;BME280;66003;52.286;104.306;2023-06-04T12:04:15;96388.19;;;23.81;41.01
77077;BME280;66003;52.286;104.306;2023-06-04T12:06:55;96393.66;;;24.03;40.03
77077;BME280;66003;52.286;104.306;2023-06-04T12:09:25;96369.03;;;24.00;39.27
77077;BME280;66003;52.286;104.306;2023-06-04T12:12:04;96373.81;;;24.06;39.09
77077;BME280;66003;52.286;104.306;2023-06-04T12:14:31;96393.13;;;24.17;38.46
77077;BME280;66003;52.286;104.306;2023-06-04T12:17:08;96396.66;;;24.44;37.81
77077;BME280;66003;52.286;104.306;2023-06-04T12:19:46;96393.16;;;24.43;38.05
77077;BME280;66003;52.286;104.306;2023-06-04T12:22:16;96395.84;;;24.40;37.80
77077;BME280;66003;52.286;104.306;2023-06-04T12:24:50;96393.22;;;24.47;37.92
77077;BME280;66003;52.286;104.306;2023-06-04T12:27:21;96377.03;;;24.35;38.15
77077;BME280;66003;52.286;104.306;2023-06-04T12:29:56;96380.91;;;24.60;37.84
77077;BME280;66003;52.286;104.306;2023-06-04T12:32:23;96355.75;;;24.47;35.98
77077;BME280;66003;52.286;104.306;2023-06-04T12:34:49;96353.44;;;24.50;35.70
77077;BME280;66003;52.286;104.306;2023-06-04T12:37:16;96362.06;;;24.52;36.45
77077;BME280;66003;52.286;104.306;2023-06-04T12:39:42;96381.66;;;24.57;36.67
77077;BME280;66003;52.286;104.306;2023-06-04T12:42:09;96381.28;;;24.59;36.80
77077;BME280;66003;52.286;104.306;2023-06-04T12:44:37;96349.78;;;24.38;36.69
77077;BME280;66003;52.286;104.306;2023-06-04T12:47:04;96364.31;;;24.46;37.40
77077;BME280;66003;52.286;104.306;2023-06-04T12:49:31;96357.19;;;24.38;37.08
77077;BME280;66003;52.286;104.306;2023-06-04T12:51:58;96355.22;;;24.38;37.81
77077;BME280;66003;52.286;104.306;2023-06-04T12:54:24;96341.25;;;24.21;39.02
77077;BME280;66003;52.286;104.306;2023-06-04T12:56:53;96370.25;;;24.25;41.12